Combs, Kentucky
Current Conditions -  °F | °C
As of 3:53 PM on Tuesday 21 Oct 2014 (Local Time) from KJKL Reporting Station
Overcast Overcast  
Wind Chill: 53°   Ceiling: 5000
Heat Index: 53°   Visibility: 10mi
Dew Point: 38°   Wind: 8mph
Humidity: 57%   Direction: 300°WNW
Pressure: 30.03"   Gusts: NA
Location:  37.27°N, 83.21°W
Report Text: KJKL 211953Z AUTO 30007KT 260V320 10SM OVC050 12/03 A3003 RMK AO2 SLP168 T01170033
Loading
Personal Weather Stations






























Interactive Weather Map
Tropical Storm Tracking
New forecast layout! Learn more

10-Day Weather Forecast

Advertisements
Track Severe Weather on mobile